createdAt,value
2023-02-14T00:00:14.930Z,0.20
2023-02-14T00:01:13.280Z,0.10
2023-02-14T00:02:13.293Z,0.10
2023-02-14T00:03:13.312Z,0.10
2023-02-14T00:04:13.362Z,0.20
2023-02-14T00:05:13.328Z,0.20
2023-02-14T00:06:15.011Z,0.10
2023-02-14T00:07:13.357Z,0.20
2023-02-14T00:08:15.001Z,0.20
2023-02-14T00:09:15.200Z,0.30
2023-02-14T00:10:13.393Z,0.20
2023-02-14T00:11:15.082Z,0.10
2023-02-14T00:12:13.408Z,0.20
2023-02-14T00:13:15.136Z,0.20
2023-02-14T00:14:15.320Z,0.20
2023-02-14T00:15:13.445Z,0.20
2023-02-14T00:16:15.159Z,0.20
2023-02-14T00:17:15.314Z,0.20
2023-02-14T00:18:15.012Z,0.30
2023-02-14T00:19:15.161Z,0.20
2023-02-14T00:20:15.318Z,0.20
2023-02-14T00:21:15.521Z,0.30
2023-02-14T00:22:15.212Z,0.20
2023-02-14T00:23:13.563Z,0.20
2023-02-14T00:24:13.562Z,0.20
2023-02-14T00:25:15.249Z,0.20
2023-02-14T00:26:15.477Z,0.20
2023-02-14T00:27:13.618Z,0.20
2023-02-14T00:28:13.624Z,0.20
2023-02-14T00:29:15.320Z,0.20
2023-02-14T00:30:15.725Z,0.20
2023-02-14T00:31:15.337Z,0.20
2023-02-14T00:32:15.444Z,0.20
2023-02-14T00:33:15.596Z,0.20
2023-02-14T00:34:15.292Z,0.20
2023-02-14T00:35:15.500Z,0.20
2023-02-14T00:36:15.675Z,0.20
2023-02-14T00:37:15.372Z,0.20
2023-02-14T00:38:15.681Z,0.20
2023-02-14T00:39:15.374Z,0.30
2023-02-14T00:40:13.787Z,0.20
2023-02-14T00:41:15.488Z,0.20
2023-02-14T00:42:13.821Z,0.20
2023-02-14T00:43:13.837Z,0.20
2023-02-14T00:44:15.521Z,0.30
2023-02-14T00:45:15.720Z,0.20
2023-02-14T00:46:15.480Z,0.20
2023-02-14T00:47:13.897Z,0.20
2023-02-14T00:48:13.912Z,0.20
2023-02-14T00:49:13.923Z,0.20
2023-02-14T00:50:13.943Z,0.20
2023-02-14T00:51:15.621Z,0.20
2023-02-14T00:52:13.955Z,0.10
2023-02-14T00:53:15.648Z,0.30
2023-02-14T00:54:13.986Z,0.20
2023-02-14T00:55:14.011Z,0.30
2023-02-14T00:56:14.006Z,0.20
2023-02-14T00:57:15.693Z,0.30
2023-02-14T00:58:15.867Z,0.20
2023-02-14T00:59:14.055Z,0.20
2023-02-14T01:00:15.704Z,0.20
2023-02-14T01:01:15.980Z,0.20
2023-02-14T01:02:16.067Z,0.20
2023-02-14T01:03:15.742Z,0.20
2023-02-14T01:04:15.954Z,0.10
2023-02-14T01:05:16.135Z,0.20
2023-02-14T01:06:14.152Z,0.10
2023-02-14T01:07:15.833Z,0.20
2023-02-14T01:08:16.006Z,0.20
2023-02-14T01:09:16.202Z,0.20
2023-02-14T01:10:15.887Z,0.20
2023-02-14T01:11:16.088Z,0.30
2023-02-14T01:12:14.235Z,0.30
2023-02-14T01:13:15.929Z,0.20
2023-02-14T01:14:14.268Z,0.20
2023-02-14T01:15:14.287Z,0.20
2023-02-14T01:16:14.318Z,0.30
2023-02-14T01:17:14.310Z,0.20
2023-02-14T01:18:15.996Z,0.20
2023-02-14T01:19:14.346Z,0.20
2023-02-14T01:20:14.346Z,0.20
2023-02-14T01:21:14.370Z,0.20
2023-02-14T01:22:14.384Z,0.40
2023-02-14T01:23:16.077Z,0.20
2023-02-14T01:24:16.267Z,0.20
2023-02-14T01:25:14.428Z,0.20
2023-02-14T01:26:14.437Z,0.20
2023-02-14T01:27:15.229Z,0.30
2023-02-14T01:28:14.467Z,0.20
2023-02-14T01:29:16.168Z,0.20
2023-02-14T01:30:15.496Z,0.20
2023-02-14T01:31:15.439Z,0.20
2023-02-14T01:32:15.501Z,0.20
2023-02-14T01:33:14.535Z,0.20
2023-02-14T01:34:16.206Z,0.20
2023-02-14T01:35:14.538Z,0.20
2023-02-14T01:36:14.573Z,0.20
2023-02-14T01:37:14.579Z,0.20
2023-02-14T01:38:14.597Z,0.20
2023-02-14T01:39:16.290Z,0.20
2023-02-14T01:40:14.640Z,0.60
2023-02-14T01:41:14.660Z,0.20
2023-02-14T01:42:14.664Z,0.20
2023-02-14T01:43:14.680Z,0.20
2023-02-14T01:44:16.375Z,0.20
2023-02-14T01:45:14.715Z,0.20
2023-02-14T01:46:14.802Z,0.20
2023-02-14T01:47:14.743Z,0.20
2023-02-14T01:48:14.751Z,0.30
2023-02-14T01:49:16.422Z,0.20
2023-02-14T01:50:14.785Z,0.30
2023-02-14T01:51:16.468Z,0.20
2023-02-14T01:52:14.810Z,0.20
2023-02-14T01:53:14.817Z,0.20
2023-02-14T01:54:16.513Z,0.20
2023-02-14T01:55:14.866Z,0.20
2023-02-14T01:56:14.875Z,0.30
2023-02-14T01:57:14.898Z,0.30
2023-02-14T01:58:14.905Z,0.20
2023-02-14T01:59:16.603Z,0.30
2023-02-14T02:00:14.958Z,0.20
2023-02-14T02:01:16.677Z,0.20
2023-02-14T02:02:14.995Z,0.30
2023-02-14T02:03:16.660Z,0.30
2023-02-14T02:04:16.848Z,0.20
2023-02-14T02:05:16.536Z,0.20
2023-02-14T02:06:16.710Z,0.20
2023-02-14T02:07:16.897Z,0.30
2023-02-14T02:08:16.622Z,0.30
2023-02-14T02:09:16.789Z,0.30
2023-02-14T02:10:16.972Z,0.20
2023-02-14T02:11:16.655Z,0.20
2023-02-14T02:12:16.856Z,0.30
2023-02-14T02:13:17.041Z,0.20
2023-02-14T02:14:16.729Z,0.20
2023-02-14T02:15:16.905Z,0.20
2023-02-14T02:16:17.127Z,0.20
2023-02-14T02:17:15.187Z,0.20
2023-02-14T02:18:15.169Z,0.20
2023-02-14T02:19:15.177Z,0.20
2023-02-14T02:20:16.869Z,0.20
2023-02-14T02:21:15.210Z,0.20
2023-02-14T02:22:15.241Z,0.30
2023-02-14T02:23:15.246Z,0.30
2023-02-14T02:24:15.302Z,0.20
2023-02-14T02:25:16.991Z,0.30
2023-02-14T02:26:15.293Z,0.30
2023-02-14T02:27:15.306Z,0.40
2023-02-14T02:28:15.319Z,0.30
2023-02-14T02:29:15.317Z,0.30
2023-02-14T02:30:17.071Z,0.30
2023-02-14T02:31:17.358Z,0.30
2023-02-14T02:32:15.376Z,0.30
2023-02-14T02:33:15.404Z,0.30
2023-02-14T02:34:15.385Z,0.30
2023-02-14T02:35:17.068Z,0.20
2023-02-14T02:36:17.257Z,0.40
2023-02-14T02:37:17.001Z,0.30
2023-02-14T02:38:15.430Z,0.30
2023-02-14T02:39:17.130Z,0.20
2023-02-14T02:40:17.316Z,0.20
2023-02-14T02:41:17.009Z,0.20
2023-02-14T02:42:15.496Z,0.30
2023-02-14T02:43:15.498Z,0.30
2023-02-14T02:44:15.534Z,0.20
2023-02-14T02:45:15.534Z,0.30
2023-02-14T02:46:17.264Z,0.20
2023-02-14T02:47:15.571Z,0.30
2023-02-14T02:48:15.615Z,0.20
2023-02-14T02:49:15.604Z,0.30
2023-02-14T02:50:15.606Z,0.30
2023-02-14T02:51:17.283Z,0.30
2023-02-14T02:52:15.705Z,0.20
2023-02-14T02:53:15.648Z,0.30
2023-02-14T02:54:15.682Z,0.30
2023-02-14T02:55:15.683Z,0.30
2023-02-14T02:56:17.371Z,0.40
2023-02-14T02:57:15.722Z,0.30
2023-02-14T02:58:15.716Z,0.40
2023-02-14T02:59:15.727Z,0.30
2023-02-14T03:00:15.744Z,0.40
2023-02-14T03:01:17.494Z,0.30
2023-02-14T03:02:15.762Z,0.20
2023-02-14T03:03:17.455Z,0.30
2023-02-14T03:04:15.791Z,0.30
2023-02-14T03:05:15.856Z,0.40
2023-02-14T03:06:17.477Z,0.30
2023-02-14T03:07:15.834Z,0.30
2023-02-14T03:08:17.523Z,0.30
2023-02-14T03:09:15.869Z,0.30
2023-02-14T03:10:15.892Z,0.40
2023-02-14T03:11:15.918Z,0.20
2023-02-14T03:12:15.927Z,0.30
2023-02-14T03:13:17.606Z,0.30
2023-02-14T03:14:15.961Z,0.30
2023-02-14T03:15:15.959Z,0.30
2023-02-14T03:16:16.059Z,0.30
2023-02-14T03:17:15.981Z,0.30
2023-02-14T03:18:17.693Z,0.30
2023-02-14T03:19:16.010Z,0.40
2023-02-14T03:20:16.050Z,0.30
2023-02-14T03:21:16.041Z,0.30
2023-02-14T03:22:16.045Z,0.40
2023-02-14T03:23:17.732Z,0.30
2023-02-14T03:24:16.072Z,0.30
2023-02-14T03:25:16.076Z,0.30
2023-02-14T03:26:16.108Z,0.30
2023-02-14T03:27:16.108Z,0.30
2023-02-14T03:28:17.815Z,0.30
2023-02-14T03:29:16.145Z,0.40
2023-02-14T03:30:16.205Z,0.30
2023-02-14T03:31:16.230Z,0.30
2023-02-14T03:32:16.261Z,0.40
2023-02-14T03:33:17.860Z,0.30
2023-02-14T03:34:16.207Z,0.20
2023-02-14T03:35:16.218Z,0.30
2023-02-14T03:36:19.385Z,0.30
2023-02-14T03:37:16.226Z,0.40
2023-02-14T03:38:17.941Z,0.30
2023-02-14T03:39:18.125Z,0.30
2023-02-14T03:40:17.827Z,0.30
2023-02-14T03:41:17.995Z,0.30
2023-02-14T03:42:18.196Z,0.40
2023-02-14T03:43:17.858Z,0.30
2023-02-14T03:44:18.039Z,0.40
2023-02-14T03:45:18.307Z,0.30
2023-02-14T03:46:18.470Z,0.30
2023-02-14T03:47:18.114Z,0.30
2023-02-14T03:48:18.272Z,0.30
2023-02-14T03:49:17.959Z,0.30
2023-02-14T03:50:19.156Z,0.30
2023-02-14T03:51:18.344Z,0.30
2023-02-14T03:52:16.460Z,0.30
2023-02-14T03:53:16.471Z,0.40
2023-02-14T03:54:18.192Z,0.30
2023-02-14T03:55:16.495Z,0.30
2023-02-14T03:56:16.512Z,0.40
2023-02-14T03:57:18.197Z,0.40
2023-02-14T03:58:16.540Z,0.40
2023-02-14T03:59:18.220Z,0.30
2023-02-14T04:00:16.555Z,0.30
2023-02-14T04:01:16.626Z,0.30
2023-02-14T04:02:16.581Z,0.30
2023-02-14T04:03:18.311Z,0.30
2023-02-14T04:04:16.612Z,0.30
2023-02-14T04:05:16.629Z,0.30
2023-02-14T04:06:18.323Z,0.30
2023-02-14T04:07:16.644Z,0.40
2023-02-14T04:08:16.658Z,0.30
2023-02-14T04:09:18.374Z,0.30
2023-02-14T04:10:18.584Z,0.40
2023-02-14T04:11:18.252Z,0.30
2023-02-14T04:12:18.213Z,0.30
2023-02-14T04:13:18.412Z,0.30
2023-02-14T04:14:18.629Z,0.30
2023-02-14T04:15:18.306Z,0.40
2023-02-14T04:16:18.537Z,0.30
2023-02-14T04:17:18.671Z,0.40
2023-02-14T04:18:18.352Z,0.30
2023-02-14T04:19:18.543Z,0.40
2023-02-14T04:20:18.736Z,0.30
2023-02-14T04:21:18.423Z,0.30
2023-02-14T04:22:16.856Z,0.40
2023-02-14T04:23:16.884Z,0.30
2023-02-14T04:24:18.597Z,0.30
2023-02-14T04:25:16.881Z,0.40
2023-02-14T04:26:18.582Z,0.30
2023-02-14T04:27:18.752Z,0.40
2023-02-14T04:28:18.442Z,0.30
2023-02-14T04:29:18.624Z,0.30
2023-02-14T04:30:18.861Z,0.40
2023-02-14T04:31:18.576Z,0.30
2023-02-14T04:32:17.035Z,0.40
2023-02-14T04:33:16.988Z,0.30
2023-02-14T04:34:17.023Z,0.40
2023-02-14T04:35:18.697Z,0.30
2023-02-14T04:36:17.042Z,0.30
2023-02-14T04:37:17.054Z,0.30
2023-02-14T04:38:17.067Z,0.30
2023-02-14T04:39:17.097Z,0.40
2023-02-14T04:40:18.771Z,0.30
2023-02-14T04:41:17.112Z,0.40
2023-02-14T04:42:17.142Z,0.40
2023-02-14T04:43:18.819Z,0.40
2023-02-14T04:44:17.176Z,0.30
2023-02-14T04:45:17.170Z,0.40
2023-02-14T04:46:17.249Z,0.40
2023-02-14T04:47:18.855Z,0.40
2023-02-14T04:48:17.200Z,0.30
2023-02-14T04:49:17.225Z,0.40
2023-02-14T04:50:17.228Z,0.30
2023-02-14T04:51:17.237Z,0.30
2023-02-14T04:52:18.918Z,0.30
2023-02-14T04:53:17.291Z,0.30
2023-02-14T04:54:17.289Z,0.30
2023-02-14T04:55:17.285Z,0.40
2023-02-14T04:56:18.975Z,0.40
2023-02-14T04:57:19.171Z,0.40
2023-02-14T04:58:17.345Z,0.40
2023-02-14T04:59:17.356Z,0.40
2023-02-14T05:00:17.377Z,0.40
2023-02-14T05:01:17.452Z,0.40
2023-02-14T05:02:19.126Z,0.40
2023-02-14T05:03:17.412Z,0.50
2023-02-14T05:04:17.430Z,0.40
2023-02-14T05:05:17.451Z,0.40
2023-02-14T05:06:17.458Z,0.40
2023-02-14T05:07:17.479Z,0.40
2023-02-14T05:08:19.192Z,0.40
2023-02-14T05:09:17.481Z,0.40
2023-02-14T05:10:17.499Z,0.30
2023-02-14T05:11:19.169Z,0.40
2023-02-14T05:12:19.360Z,0.30
2023-02-14T05:13:17.564Z,0.30
2023-02-14T05:14:19.223Z,0.40
2023-02-14T05:15:17.573Z,0.40
2023-02-14T05:16:19.313Z,0.40
2023-02-14T05:17:19.426Z,0.40
2023-02-14T05:18:17.620Z,0.30
2023-02-14T05:19:19.268Z,0.30
2023-02-14T05:20:17.634Z,0.40
2023-02-14T05:21:19.323Z,0.40
2023-02-14T05:22:19.513Z,0.30
2023-02-14T05:23:19.203Z,0.40
2023-02-14T05:24:19.391Z,0.30
2023-02-14T05:25:19.574Z,0.40
2023-02-14T05:26:17.734Z,0.40
2023-02-14T05:27:19.405Z,0.40
2023-02-14T05:28:17.751Z,0.40
2023-02-14T05:29:19.427Z,0.40
2023-02-14T05:30:17.810Z,0.30
2023-02-14T05:31:17.866Z,0.40
2023-02-14T05:32:17.881Z,0.40
2023-02-14T05:33:17.832Z,0.40
2023-02-14T05:34:21.302Z,0.50
2023-02-14T05:35:17.857Z,0.40
2023-02-14T05:36:17.868Z,0.40
2023-02-14T05:37:17.879Z,0.30
2023-02-14T05:38:17.884Z,0.30
2023-02-14T05:39:19.575Z,0.30
2023-02-14T05:40:17.927Z,0.30
2023-02-14T05:41:17.940Z,0.30
2023-02-14T05:42:17.951Z,0.40
2023-02-14T05:43:17.985Z,0.40
2023-02-14T05:44:18.027Z,0.40
2023-02-14T05:45:19.721Z,0.40
2023-02-14T05:46:19.896Z,0.40
2023-02-14T05:47:19.564Z,0.30
2023-02-14T05:48:19.740Z,0.30
2023-02-14T05:49:18.056Z,0.40
2023-02-14T05:50:18.053Z,0.30
2023-02-14T05:51:19.737Z,0.40
2023-02-14T05:52:19.925Z,0.30
2023-02-14T05:53:19.625Z,0.40
2023-02-14T05:54:19.792Z,0.40
2023-02-14T05:55:19.976Z,0.30
2023-02-14T05:56:19.664Z,0.30
2023-02-14T05:57:18.164Z,0.40
2023-02-14T05:58:19.848Z,0.40
2023-02-14T05:59:18.193Z,0.70
2023-02-14T06:00:18.196Z,0.40
2023-02-14T06:01:19.877Z,0.40
2023-02-14T06:02:18.294Z,0.40
2023-02-14T06:03:19.915Z,0.40
2023-02-14T06:04:18.267Z,0.30
2023-02-14T06:05:18.329Z,0.30
2023-02-14T06:06:18.271Z,0.30
2023-02-14T06:07:18.369Z,0.50
2023-02-14T06:08:20.058Z,0.30
2023-02-14T06:09:18.330Z,0.40
2023-02-14T06:10:19.997Z,0.40
2023-02-14T06:11:20.193Z,0.40
2023-02-14T06:12:18.378Z,0.40
2023-02-14T06:13:18.382Z,0.40
2023-02-14T06:14:18.389Z,0.70
2023-02-14T06:15:20.089Z,0.40
2023-02-14T06:16:20.296Z,0.40
2023-02-14T06:17:18.448Z,0.30
2023-02-14T06:18:18.445Z,0.40
2023-02-14T06:19:18.474Z,0.40
2023-02-14T06:20:18.485Z,0.40
2023-02-14T06:21:20.170Z,0.40
2023-02-14T06:22:18.527Z,0.30
2023-02-14T06:23:18.525Z,0.40
2023-02-14T06:24:18.526Z,0.40
2023-02-14T06:25:18.564Z,0.30
2023-02-14T06:26:20.238Z,0.40
2023-02-14T06:27:18.573Z,0.40
2023-02-14T06:28:20.260Z,0.40
2023-02-14T06:29:18.592Z,0.30
2023-02-14T06:30:18.669Z,0.30
2023-02-14T06:31:20.411Z,0.30
2023-02-14T06:32:18.678Z,0.40
2023-02-14T06:33:20.323Z,0.40
2023-02-14T06:34:18.675Z,0.40
2023-02-14T06:35:18.709Z,0.40
2023-02-14T06:36:19.621Z,0.40
2023-02-14T06:37:18.723Z,0.30
2023-02-14T06:38:20.406Z,0.40
2023-02-14T06:39:18.758Z,0.60
2023-02-14T06:40:18.783Z,0.40
2023-02-14T06:41:20.474Z,0.40
2023-02-14T06:42:18.798Z,0.40
2023-02-14T06:43:18.815Z,0.40
2023-02-14T06:44:18.822Z,0.40
2023-02-14T06:45:18.839Z,0.40
2023-02-14T06:46:20.595Z,0.40
2023-02-14T06:47:18.860Z,0.30
2023-02-14T06:48:18.900Z,0.30
2023-02-14T06:49:18.891Z,0.40
2023-02-14T06:50:18.888Z,0.40
2023-02-14T06:51:18.914Z,0.40
2023-02-14T06:52:20.590Z,0.40
2023-02-14T06:53:18.940Z,0.50
2023-02-14T06:54:18.943Z,0.30
2023-02-14T06:55:18.972Z,0.40
2023-02-14T06:56:18.984Z,0.40
2023-02-14T06:57:20.670Z,0.30
2023-02-14T06:58:19.016Z,0.40
2023-02-14T06:59:20.673Z,0.50
2023-02-14T07:00:19.036Z,0.40
2023-02-14T07:01:20.753Z,0.40
2023-02-14T07:02:23.475Z,0.40
2023-02-14T07:03:19.077Z,0.50
2023-02-14T07:04:20.808Z,0.40
2023-02-14T07:05:20.984Z,0.40
2023-02-14T07:06:20.635Z,0.40
2023-02-14T07:07:20.834Z,0.40
2023-02-14T07:08:19.137Z,0.40
2023-02-14T07:09:19.172Z,0.40
2023-02-14T07:10:19.269Z,0.50
2023-02-14T07:11:19.191Z,0.50
2023-02-14T07:12:20.875Z,0.50
2023-02-14T07:13:21.055Z,0.40
2023-02-14T07:14:19.232Z,0.50
2023-02-14T07:15:19.241Z,0.50
2023-02-14T07:16:19.272Z,0.40
2023-02-14T07:17:19.287Z,0.40
2023-02-14T07:18:20.965Z,0.50
2023-02-14T07:19:19.310Z,0.40
2023-02-14T07:20:19.340Z,0.50
2023-02-14T07:21:19.333Z,0.50
2023-02-14T07:22:21.006Z,0.50
2023-02-14T07:23:21.193Z,0.50
2023-02-14T07:24:21.368Z,0.40
2023-02-14T07:25:21.026Z,0.40
2023-02-14T07:26:21.229Z,0.50
2023-02-14T07:27:21.385Z,0.40
2023-02-14T07:28:21.070Z,0.50
2023-02-14T07:29:21.257Z,0.50
2023-02-14T07:30:21.457Z,0.40
2023-02-14T07:31:21.264Z,0.50
2023-02-14T07:32:21.353Z,0.40
2023-02-14T07:33:21.460Z,0.50
2023-02-14T07:34:21.135Z,0.50
2023-02-14T07:35:21.285Z,0.60
2023-02-14T07:36:19.544Z,0.50
2023-02-14T07:37:21.217Z,0.60
2023-02-14T07:38:21.370Z,0.50
2023-02-14T07:39:19.595Z,0.50
2023-02-14T07:40:19.584Z,0.50
2023-02-14T07:41:19.611Z,0.50
2023-02-14T07:42:19.629Z,0.50
2023-02-14T07:43:21.324Z,0.60
2023-02-14T07:44:19.657Z,0.50
2023-02-14T07:45:21.966Z,0.50
2023-02-14T07:46:19.774Z,0.50
2023-02-14T07:47:19.711Z,0.50
2023-02-14T07:48:21.382Z,0.50
2023-02-14T07:49:21.568Z,0.40
2023-02-14T07:50:19.765Z,0.40
2023-02-14T07:51:19.758Z,0.40
2023-02-14T07:52:21.427Z,0.50
2023-02-14T07:53:19.793Z,0.50
2023-02-14T07:54:21.465Z,0.50
2023-02-14T07:55:19.829Z,0.50
2023-02-14T07:56:19.820Z,0.40
2023-02-14T07:57:21.506Z,0.50
2023-02-14T07:58:19.847Z,0.50
2023-02-14T07:59:21.560Z,0.60
2023-02-14T08:00:19.865Z,0.40
2023-02-14T08:01:19.911Z,0.90
2023-02-14T08:02:21.559Z,0.60
2023-02-14T08:03:19.904Z,0.50
2023-02-14T08:04:19.940Z,0.50
2023-02-14T08:05:19.948Z,0.50
2023-02-14T08:06:19.939Z,0.60
2023-02-14T08:07:21.631Z,0.60
2023-02-14T08:08:19.979Z,0.50
2023-02-14T08:09:19.999Z,0.50
2023-02-14T08:10:21.674Z,0.50
2023-02-14T08:11:20.017Z,0.50
2023-02-14T08:12:20.047Z,0.50
2023-02-14T08:13:20.038Z,0.60
2023-02-14T08:14:20.058Z,0.50
2023-02-14T08:15:21.773Z,0.60
2023-02-14T08:16:20.109Z,0.60
2023-02-14T08:17:20.099Z,0.50
2023-02-14T08:18:20.126Z,0.50
2023-02-14T08:19:20.115Z,0.50
2023-02-14T08:20:20.139Z,0.50
2023-02-14T08:21:21.817Z,0.50
2023-02-14T08:22:20.149Z,0.60
2023-02-14T08:23:20.183Z,0.60
2023-02-14T08:24:20.195Z,0.60
2023-02-14T08:25:21.882Z,0.60
2023-02-14T08:26:20.224Z,0.50
2023-02-14T08:27:20.236Z,0.60
2023-02-14T08:28:21.200Z,0.50
2023-02-14T08:29:20.278Z,0.60
2023-02-14T08:30:22.044Z,0.60
2023-02-14T08:31:29.992Z,0.60
2023-02-14T08:32:21.388Z,0.50
2023-02-14T08:33:20.320Z,0.50
2023-02-14T08:34:20.349Z,0.50
2023-02-14T08:35:22.037Z,0.50
2023-02-14T08:36:20.361Z,0.50
2023-02-14T08:37:20.384Z,0.60
2023-02-14T08:38:20.388Z,0.50
2023-02-14T08:39:22.100Z,0.60
2023-02-14T08:40:22.328Z,0.50
2023-02-14T08:41:22.042Z,0.70
2023-02-14T08:42:20.444Z,0.60
2023-02-14T08:43:22.133Z,0.60
2023-02-14T08:44:20.466Z,0.50
2023-02-14T08:45:22.167Z,0.50
2023-02-14T08:46:22.418Z,0.50
2023-02-14T08:47:20.526Z,0.50
2023-02-14T08:48:22.198Z,0.60
2023-02-14T08:49:22.368Z,0.60
2023-02-14T08:50:22.529Z,0.60
2023-02-14T08:51:22.230Z,0.60
2023-02-14T08:52:22.411Z,0.50
2023-02-14T08:53:20.619Z,0.50
2023-02-14T08:54:20.606Z,0.50
2023-02-14T08:55:22.286Z,0.50
2023-02-14T08:56:20.623Z,0.50
2023-02-14T08:57:20.631Z,0.50
2023-02-14T08:58:20.642Z,0.70
2023-02-14T08:59:20.673Z,0.50
2023-02-14T09:00:20.676Z,0.60
2023-02-14T09:01:22.400Z,0.60
2023-02-14T09:02:22.569Z,0.60
2023-02-14T09:03:22.747Z,0.60
2023-02-14T09:04:22.441Z,0.60
2023-02-14T09:05:20.755Z,0.60
2023-02-14T09:06:22.433Z,0.50
2023-02-14T09:07:22.591Z,0.60
2023-02-14T09:08:22.754Z,0.60
2023-02-14T09:09:22.445Z,0.50
2023-02-14T09:10:22.655Z,0.60
2023-02-14T09:11:22.851Z,0.60
2023-02-14T09:12:22.526Z,0.60
2023-02-14T09:13:22.707Z,0.50
2023-02-14T09:14:25.365Z,0.50
2023-02-14T09:15:22.538Z,0.50
2023-02-14T09:16:20.915Z,0.60
2023-02-14T09:17:20.901Z,0.50
2023-02-14T09:18:20.974Z,0.50
2023-02-14T09:19:22.646Z,0.50
2023-02-14T09:20:20.941Z,0.50
2023-02-14T09:21:20.956Z,0.50
2023-02-14T09:22:22.680Z,0.60
2023-02-14T09:23:20.971Z,0.60
2023-02-14T09:24:20.988Z,0.60
2023-02-14T09:25:21.009Z,0.50
2023-02-14T09:26:21.014Z,0.70
2023-02-14T09:27:22.691Z,0.60
2023-02-14T09:28:21.067Z,0.50
2023-02-14T09:29:21.052Z,0.50
2023-02-14T09:30:21.137Z,0.60
2023-02-14T09:31:22.904Z,0.60
2023-02-14T09:32:21.141Z,0.60
2023-02-14T09:33:22.776Z,0.70
2023-02-14T09:34:22.954Z,0.70
2023-02-14T09:35:22.654Z,0.50
2023-02-14T09:36:22.834Z,0.50
2023-02-14T09:37:21.187Z,0.50
2023-02-14T09:38:21.161Z,0.50
2023-02-14T09:39:21.185Z,0.50
2023-02-14T09:40:21.201Z,0.60
2023-02-14T09:41:22.873Z,0.60
2023-02-14T09:42:21.211Z,0.60
2023-02-14T09:43:21.232Z,0.60
2023-02-14T09:44:22.907Z,0.50
2023-02-14T09:45:21.281Z,0.60
2023-02-14T09:46:21.287Z,0.60
2023-02-14T09:47:22.953Z,0.60
2023-02-14T09:48:21.295Z,0.50
2023-02-14T09:49:23.056Z,0.60
2023-02-14T09:50:21.337Z,0.60
2023-02-14T09:51:21.369Z,0.50
2023-02-14T09:52:21.348Z,0.50
2023-02-14T09:53:21.363Z,0.50
2023-02-14T09:54:21.376Z,0.50
2023-02-14T09:55:23.074Z,0.60
2023-02-14T09:56:23.252Z,0.60
2023-02-14T09:57:21.403Z,0.60
2023-02-14T09:58:21.432Z,0.50
2023-02-14T09:59:21.433Z,0.70
2023-02-14T10:00:21.470Z,0.60
2023-02-14T10:01:23.208Z,0.60
2023-02-14T10:02:21.534Z,0.50
2023-02-14T10:03:21.499Z,0.60
2023-02-14T10:04:21.526Z,0.50
2023-02-14T10:05:21.524Z,0.60
2023-02-14T10:06:21.542Z,0.50
2023-02-14T10:07:23.224Z,0.60
2023-02-14T10:08:21.578Z,0.50
2023-02-14T10:09:21.589Z,0.50
2023-02-14T10:10:21.619Z,0.70
2023-02-14T10:11:23.303Z,0.60
2023-02-14T10:12:21.630Z,0.60
2023-02-14T10:13:21.671Z,0.60
2023-02-14T10:14:23.365Z,0.60
2023-02-14T10:15:21.656Z,0.60
2023-02-14T10:16:21.709Z,0.60
2023-02-14T10:17:21.681Z,0.60
2023-02-14T10:18:21.696Z,0.60
2023-02-14T10:19:21.708Z,0.60
2023-02-14T10:20:23.402Z,0.60
2023-02-14T10:21:21.732Z,0.50
2023-02-14T10:22:21.739Z,0.60
2023-02-14T10:23:21.756Z,0.60
2023-02-14T10:24:21.792Z,0.60
2023-02-14T10:25:23.475Z,0.60
2023-02-14T10:26:21.813Z,0.60
2023-02-14T10:27:21.817Z,0.60
2023-02-14T10:28:21.838Z,0.60
2023-02-14T10:29:21.871Z,0.60
2023-02-14T10:30:23.734Z,0.60
2023-02-14T10:31:21.970Z,0.70
2023-02-14T10:32:21.935Z,0.50
2023-02-14T10:33:21.902Z,0.70
2023-02-14T10:34:21.915Z,0.50
2023-02-14T10:35:23.598Z,0.60
2023-02-14T10:36:21.942Z,0.60
2023-02-14T10:37:21.967Z,0.70
2023-02-14T10:38:23.650Z,0.60
2023-02-14T10:39:23.836Z,0.60
2023-02-14T10:40:23.531Z,0.60
2023-02-14T10:41:23.722Z,0.70
2023-02-14T10:42:23.923Z,0.60
2023-02-14T10:43:23.599Z,0.50
2023-02-14T10:44:23.786Z,0.60
2023-02-14T10:45:23.981Z,0.70
2023-02-14T10:46:23.707Z,0.60
2023-02-14T10:47:23.839Z,0.70
2023-02-14T10:48:24.042Z,0.50
2023-02-14T10:49:23.724Z,0.60
2023-02-14T10:50:23.926Z,0.60
2023-02-14T10:51:24.116Z,0.60
2023-02-14T10:52:23.816Z,0.50
2023-02-14T10:53:24.010Z,0.60
2023-02-14T10:54:24.195Z,0.50
2023-02-14T10:55:32.283Z,0.60
2023-02-14T10:56:23.226Z,0.60
2023-02-14T10:57:23.923Z,0.50
2023-02-14T10:58:24.123Z,0.50
2023-02-14T10:59:23.809Z,0.70
2023-02-14T11:00:24.034Z,0.60
2023-02-14T11:01:24.280Z,0.60
2023-02-14T11:02:23.885Z,0.70
2023-02-14T11:03:24.105Z,0.70
2023-02-14T11:04:24.275Z,0.50
2023-02-14T11:05:23.983Z,0.60
2023-02-14T11:06:24.131Z,0.60
2023-02-14T11:07:24.310Z,0.60
2023-02-14T11:08:22.381Z,0.70
2023-02-14T11:09:22.512Z,0.60
2023-02-14T11:10:24.084Z,0.60
2023-02-14T11:11:22.409Z,0.70
2023-02-14T11:12:24.117Z,0.60
2023-02-14T11:13:24.282Z,0.60
2023-02-14T11:14:22.687Z,0.50
2023-02-14T11:15:22.468Z,0.60
2023-02-14T11:16:22.538Z,0.40
2023-02-14T11:17:24.187Z,0.50
2023-02-14T11:18:24.375Z,0.50
2023-02-14T11:19:22.551Z,0.50
2023-02-14T11:20:22.547Z,0.50
2023-02-14T11:21:22.557Z,0.60
2023-02-14T11:22:24.251Z,0.50
2023-02-14T11:23:22.587Z,0.50
2023-02-14T11:24:24.278Z,0.60
2023-02-14T11:25:22.622Z,0.50
2023-02-14T11:26:22.629Z,0.50
2023-02-14T11:27:22.645Z,0.60
2023-02-14T11:28:22.685Z,0.60
2023-02-14T11:29:24.357Z,0.60
2023-02-14T11:30:22.781Z,0.50
2023-02-14T11:31:22.845Z,0.60
2023-02-14T11:32:22.732Z,0.60
2023-02-14T11:33:22.719Z,0.50
2023-02-14T11:34:24.406Z,0.60
2023-02-14T11:35:22.738Z,0.60
2023-02-14T11:36:22.760Z,0.40
2023-02-14T11:37:22.767Z,0.50
2023-02-14T11:38:22.796Z,0.50
2023-02-14T11:39:24.497Z,1.00
2023-02-14T11:40:22.816Z,0.50
2023-02-14T11:41:24.487Z,0.60
2023-02-14T11:42:22.850Z,0.60
2023-02-14T11:43:22.881Z,0.60
2023-02-14T11:44:24.526Z,0.60
2023-02-14T11:45:22.866Z,0.60
2023-02-14T11:46:23.855Z,0.50
2023-02-14T11:47:23.805Z,0.60
2023-02-14T11:48:39.548Z,0.50
2023-02-14T11:49:25.592Z,0.60
2023-02-14T11:50:22.959Z,0.50
2023-02-14T11:51:23.928Z,0.50
2023-02-14T11:52:23.843Z,0.60
2023-02-14T11:53:22.981Z,0.60
2023-02-14T11:54:24.673Z,0.50
2023-02-14T11:55:23.006Z,0.50
2023-02-14T11:56:23.041Z,0.60
2023-02-14T11:57:23.047Z,0.60
2023-02-14T11:58:23.072Z,0.60
2023-02-14T11:59:24.751Z,0.50
2023-02-14T12:00:23.122Z,0.60
2023-02-14T12:01:23.094Z,0.60
2023-02-14T12:02:24.795Z,0.60
2023-02-14T12:03:23.158Z,0.60
2023-02-14T12:04:24.815Z,0.50
2023-02-14T12:05:24.996Z,0.60
2023-02-14T12:06:23.186Z,0.50
2023-02-14T12:07:24.831Z,0.50
2023-02-14T12:08:23.200Z,0.60
2023-02-14T12:09:24.896Z,0.60
2023-02-14T12:10:25.083Z,0.60
2023-02-14T12:11:23.215Z,0.60
2023-02-14T12:12:24.909Z,0.60
2023-02-14T12:13:25.106Z,0.60
2023-02-14T12:14:24.803Z,0.60
2023-02-14T12:15:25.079Z,0.40
2023-02-14T12:16:23.281Z,0.60
2023-02-14T12:17:23.298Z,0.50
2023-02-14T12:18:24.984Z,0.50
2023-02-14T12:19:26.170Z,0.60
2023-02-14T12:20:24.875Z,0.50
2023-02-14T12:21:25.062Z,0.60
2023-02-14T12:22:27.422Z,0.60
2023-02-14T12:23:23.541Z,0.50
2023-02-14T12:24:25.072Z,0.50
2023-02-14T12:25:25.275Z,0.60
2023-02-14T12:26:24.945Z,0.60
2023-02-14T12:27:25.130Z,0.60
2023-02-14T12:28:25.276Z,0.60
2023-02-14T12:29:25.439Z,0.80
2023-02-14T12:30:25.162Z,0.60
2023-02-14T12:31:25.381Z,0.50
2023-02-14T12:32:25.055Z,0.60
2023-02-14T12:33:25.222Z,0.50
2023-02-14T12:34:25.476Z,0.60
2023-02-14T12:35:25.104Z,0.70
2023-02-14T12:36:25.280Z,0.60
2023-02-14T12:37:23.553Z,0.50
2023-02-14T12:38:23.575Z,0.50
2023-02-14T12:39:23.586Z,0.60
2023-02-14T12:40:23.638Z,0.60
2023-02-14T12:41:25.306Z,0.50
2023-02-14T12:42:23.636Z,0.50
2023-02-14T12:43:23.645Z,0.50
2023-02-14T12:44:23.658Z,0.60
2023-02-14T12:45:23.680Z,0.60
2023-02-14T12:46:25.409Z,0.60
2023-02-14T12:47:25.542Z,0.60
2023-02-14T12:48:23.725Z,0.50
2023-02-14T12:49:23.730Z,0.60
2023-02-14T12:50:25.417Z,0.50
2023-02-14T12:51:25.603Z,0.50
2023-02-14T12:52:25.306Z,0.60
2023-02-14T12:53:25.480Z,0.50
2023-02-14T12:54:25.686Z,0.70
2023-02-14T12:55:25.464Z,0.50
2023-02-14T12:56:25.578Z,0.50
2023-02-14T12:57:25.769Z,0.60
2023-02-14T12:58:25.452Z,0.50
2023-02-14T12:59:25.639Z,0.60
2023-02-14T13:00:25.839Z,0.60
2023-02-14T13:01:28.803Z,0.50
2023-02-14T13:02:26.800Z,0.50
2023-02-14T13:03:25.896Z,0.50
2023-02-14T13:04:25.591Z,0.50
2023-02-14T13:05:23.956Z,0.50
2023-02-14T13:06:23.966Z,0.50
2023-02-14T13:07:25.643Z,0.50
2023-02-14T13:08:23.989Z,0.60
2023-02-14T13:09:23.994Z,0.50
2023-02-14T13:10:24.010Z,0.70
2023-02-14T13:11:25.718Z,0.50
2023-02-14T13:12:24.047Z,0.50
2023-02-14T13:13:24.049Z,0.60
2023-02-14T13:14:24.110Z,0.50
2023-02-14T13:15:24.089Z,0.50
2023-02-14T13:16:27.321Z,0.50
2023-02-14T13:17:24.113Z,0.50
2023-02-14T13:18:24.128Z,0.60